Rbd Italia — ICQC — position and weather

sailwx.info

Track history (hours):
 
Tides and Currents Weather Stations Pressure Air Temp Water Temp Dewpoint Dewpoint Depression Visibility Wind Speed Wind Dir Waves Ship Positions

Rbd Italia

Last reported at 2017-Nov-15 23:20 UTC. Time now 2017-Nov-18 10:25 UTC.
Position N 01°15' E 104°03'.

Length 229 m; draft 14.2 m.

Type: Cargo ship. MMSI: 247303200.

Date/timePositionNaut miles runAvg speedWind from/ knotsBaromVisibWave heightAir tempDewpointWater temp
2017-Nov-15 23:20N 01°15' E 104°03'3 7.9
2017-Nov-15 23:00N 01°14' E 104°00'4 7.6
2017-Nov-15 22:29N 01°16' E 103°57'1 0.6
2017-Nov-15 20:46N 01°16' E 103°56'0 0.2
2017-Nov-15 20:28N 01°16' E 103°56'0 0.2
2017-Nov-15 19:55N 01°16' E 103°56'0 0.1
2017-Nov-15 19:10N 01°16' E 103°56'0 0.1
2017-Nov-15 18:58N 01°16' E 103°56'0 0.1
2017-Nov-15 18:28N 01°16' E 103°56'0 0.0
2017-Nov-15 17:52N 01°16' E 103°56'0 0.0
2017-Nov-15 17:28N 01°16' E 103°56'0 0.0
2017-Nov-15 16:58N 01°16' E 103°56'0 0.1
2017-Nov-15 15:58N 01°16' E 103°56'0 0.0
2017-Nov-15 10:16N 01°16' E 103°56'0 0.2
2017-Nov-15 09:58N 01°16' E 103°56'0 0.1
2017-Nov-15 08:16N 01°16' E 103°56'0 0.0
2017-Nov-15 08:00N 01°16' E 103°56'0 0.1
2017-Nov-15 07:30N 01°16' E 103°56'1 2.8
2017-Nov-15 07:00N 01°15' E 103°57'3 6.0
2017-Nov-15 06:28N 01°13' E 103°55'612.0
2017-Nov-15 06:00N 01°11' E 103°50'612.4
2017-Nov-15 05:30N 01°07' E 103°45'612.3
2017-Nov-15 04:59N 01°03' E 103°40'510.9
2017-Nov-15 04:30N 01°05' E 103°35'611.8
2017-Nov-15 03:58N 01°08' E 103°29'611.9
2017-Nov-15 03:30N 01°11' E 103°25'  
Track history (hours):
 
Tides and Currents Weather Stations Pressure Air Temp Water Temp Dewpoint Dewpoint Depression Visibility Wind Speed Wind Dir Waves Ship Positions

Rbd Italia

Last reported at 2017-Nov-15 23:20 UTC. Time now 2017-Nov-18 10:25 UTC.
Position N 01°15' E 104°03'.

Length 229 m; draft 14.2 m.

Type: Cargo ship. MMSI: 247303200.

Date/timePositionNaut miles runAvg speedWind from/ knotsBaromVisibWave heightAir tempDewpointWater temp
2017-Nov-15 23:20N 01°15' E 104°03'3 7.9
2017-Nov-15 23:00N 01°14' E 104°00'4 7.6
2017-Nov-15 22:29N 01°16' E 103°57'1 0.6
2017-Nov-15 20:46N 01°16' E 103°56'0 0.2
2017-Nov-15 20:28N 01°16' E 103°56'0 0.2
2017-Nov-15 19:55N 01°16' E 103°56'0 0.1
2017-Nov-15 19:10N 01°16' E 103°56'0 0.1
2017-Nov-15 18:58N 01°16' E 103°56'0 0.1
2017-Nov-15 18:28N 01°16' E 103°56'0 0.0
2017-Nov-15 17:52N 01°16' E 103°56'0 0.0
2017-Nov-15 17:28N 01°16' E 103°56'0 0.0
2017-Nov-15 16:58N 01°16' E 103°56'0 0.1
2017-Nov-15 15:58N 01°16' E 103°56'0 0.0
2017-Nov-15 10:16N 01°16' E 103°56'0 0.2
2017-Nov-15 09:58N 01°16' E 103°56'0 0.1
2017-Nov-15 08:16N 01°16' E 103°56'0 0.0
2017-Nov-15 08:00N 01°16' E 103°56'0 0.1
2017-Nov-15 07:30N 01°16' E 103°56'1 2.8
2017-Nov-15 07:00N 01°15' E 103°57'3 6.0
2017-Nov-15 06:28N 01°13' E 103°55'612.0
2017-Nov-15 06:00N 01°11' E 103°50'612.4
2017-Nov-15 05:30N 01°07' E 103°45'612.3
2017-Nov-15 04:59N 01°03' E 103°40'510.9
2017-Nov-15 04:30N 01°05' E 103°35'611.8
2017-Nov-15 03:58N 01°08' E 103°29'611.9
2017-Nov-15 03:30N 01°11' E 103°25'  

Dump ship's entire track history